Wednesday, May 04, 2016
19:20 UTC
  |  Log In   |  Register Free
Airport Search:

Lewis University Airport
(KLOT)

Lewis University Airport Diagram
No Airport Diagram Available

FAA data valid effective Mar 31 2016 - May 26 2016 (unless otherwise noted).

 
 
 
 
 
 
 
 
 
 
 
 
 
 
Current Aviation Weather for KLOT

Weather Summary


The most recent METAR observation for LOT was updated at: 12:55 UTC
METAR for KLOT is not available. Closest METAR is for KJOT
KLOT  (most recent observation was updatred at 41:85 UTC)
041855Z AUTO 35013G19KT 10SM BKN035 BKN041 OVC046 10/02 A2980 RMK AO2 LTG DSNT SE T00960023

KJOT  (6.4 nm NE)   (most recent observation was updated at 41:85 UTC)
041855Z AUTO 36014G20KT 10SM SCT035 OVC045 11/04 A2980 RMK AO2 LTG DSNT SE T01100036

KC09  (18.2 nm NE)   (most recent observation was updated at 41:85 UTC)
041855Z AUTO 34010G18KT 10SM BKN036 BKN042 OVC048 11/04 A2980 RMK AO2 LTG DSNT SE T01120043

TAF for KLOT is not available.
KMDW  (18.8 nm SW)   (most recent observation was updatred at 41:73 UTC)
041734Z 0418/0518 36015G21KT P6SM VCSH BKN035 FM050000 36011G16KT P6SM BKN040 FM051500 02010KT P6SM SCT030 SCT250


KDPA  (19.2 nm SE)   (most recent observation was updatred at 41:73 UTC)
041734Z 0418/0518 33015G21KT P6SM VCSH BKN035 FM050000 36011G16KT P6SM BKN040 FM051500 02010KT P6SM SCT030 SCT250


KORD  (23.9 nm SW)   (most recent observation was updatred at 41:73 UTC)
041734Z 0418/0524 34015G21KT P6SM VCSH BKN035 FM050000 36011G16KT P6SM BKN040 FM051500 02010KT P6SM SCT030 SCT250
GlobalAir.com is loading additional information.
 Current Weather at LOT
50.0 F° (10.1 C°)

North winds at 19.6 mph
Pressure:
29.79 in
Humidity:
60%
Wind:
North at 19.6 mph
Dew Point:
36.5 F° (2.5 C°)
Visibility:
10.00 mi
LOT NOAA Radar




Find All Airport Services Find A Hotel Find A Rental Car Find A Golf Course Find A Restaurant $100 Hamburger



Airport Weather Forecast for KLOT

Translated METAR for KLOT (1855 UTC)
METAR:
KLOT 041855Z AUTO 35013G19KT 10SM BKN035 BKN041 OVC046 10/02 A2980 RMK AO2 LTG DSNT SE T00960023
Conditions at:
KLOT (Lewis University, IL) observed 1855 UTC 04 May 2016
Temperature:
10°C (50°F)
Dewpoint:
2°C (35.6°F) [RH = 57.5]
Pressure:
29.8 inches Hg (1009.1 mb)
Winds:
from the N (350 degrees) at 15 mph (13 knots: 6.7 m/s)
gusting to 21.9 mph (19 knots: 9.8 m/s)
Visibility:
10 mile(s)
Ceiling:
3,500 feet AGL
Clouds:
Broken Cloud Cover at 3,500 feet AGL
Broken Cloud Cover at 4,100 feet AGL
Overcast Skies at 4,600 feet AGL
Remarks:
site is un-manned
site is automated and HAS a precipitation sensor

Translated TAF for KMDW (Chicago Midway Intl, IL) (1734 UTC)
TAF text:
KMDW 041734Z 0418/0518 36015G21KT P6SM VCSH BKN035
Forecast period:
Wednesday May 04 2016 18:00 UTC - Thursday May 05 2016 18:00 UTC
Forecast type:
FROM: standard forecast or significant change
Winds:
from the N (360 degrees) at 17.3 mph (15 knots: 7.7 m/s)
gusting to 24.2 mph (21 knots: 10.8 m/s)
Visibility:
6 or more mile(s) (9.7+ km)
Ceiling:
3,500 feet AGL
Clouds:
Broken Cloud Cover at 3,500 feet AGL
Weather:
Moderate In Vicinity Shower(s)
TAF text:
FM050000 36011G16KT P6SM BKN040
Forecast period:
Thursday May 05 2016 00:00 UTC - Thursday May 05 2016 15:00 UTC
Forecast type:
FROM: standard forecast or significant change
Winds:
from the N (360 degrees) at 12.7 mph (11 knots: 5.7 m/s)
gusting to 18.4 mph (16 knots: 8.2 m/s)
Visibility:
6 or more mile(s) (9.7+ km)
Ceiling:
4,000 feet AGL
Clouds:
Broken Cloud Cover at 4,000 feet AGL
Weather:
no significant weather observed at this time
TAF text:
FM051500 02010KT P6SM SCT030 SCT250
Forecast period:
Thursday May 05 2016 15:00 UTC - Thursday May 05 2016 18:00 UTC
Forecast type:
FROM: standard forecast or significant change
Winds:
from the NNE (020 degrees) at 11.5 mph (10 knots: 5.1 m/s)
Visibility:
6 or more mile(s) (9.7+ km)
Ceiling:
at least 12,000 feet AGL
Clouds:
Scattered Clouds at 3,000 feet AGL
Scattered Clouds at 25,000 feet AGL
Weather:
no significant weather observed at this time
FBO's on the Field
FBO Company Facility Photos Services Transportation Aviation Fuel Prices: Prices include tax
Catering Weather Repair Courtesy Rental Type 100LL JetA JetA+ MOGAS 8087
 
Lewis University Airport

This FBO has not yet been rated
FS:Phillips 66
Last Updated: Apr-06
Login to update fuel prices
SS:
Contact Lewis University AirportMore FBO Information
 
Add another FBO Facility Photos Catering Weather Repair Courtesy Rental Type 100LL JetA JetA+ MOGAS 8087
Services Transportation Aviation Fuel Prices: Prices include tax


model-print
model-print
model-print
model-print